createdAt,value
2022-09-07T00:01:51.837Z,50.30
2022-09-07T00:04:18.941Z,50.50
2022-09-07T00:06:47.788Z,50.50
2022-09-07T00:09:20.035Z,50.60
2022-09-07T00:11:53.374Z,50.60
2022-09-07T00:14:20.787Z,50.90
2022-09-07T00:16:49.704Z,51.00
2022-09-07T00:19:19.667Z,51.00
2022-09-07T00:21:46.636Z,51.10
2022-09-07T00:24:16.601Z,51.10
2022-09-07T00:26:48.409Z,51.20
2022-09-07T00:29:15.610Z,51.30
2022-09-07T00:31:48.552Z,51.20
2022-09-07T00:34:15.627Z,51.40
2022-09-07T00:36:45.301Z,51.40
2022-09-07T00:39:17.304Z,51.50
2022-09-07T00:41:50.790Z,51.40
2022-09-07T00:44:36.589Z,51.50
2022-09-07T00:47:03.390Z,51.60
2022-09-07T00:49:35.349Z,51.60
2022-09-07T00:52:08.182Z,51.70
2022-09-07T00:54:44.704Z,51.60
2022-09-07T00:57:11.494Z,51.70
2022-09-07T00:59:47.087Z,51.50
2022-09-07T01:02:23.957Z,51.30
2022-09-07T01:05:03.627Z,51.00
2022-09-07T01:07:41.366Z,50.60
2022-09-07T01:10:10.206Z,50.50
2022-09-07T01:12:45.440Z,50.80
2022-09-07T01:15:13.313Z,50.20
2022-09-07T01:17:46.202Z,50.50
2022-09-07T01:20:40.744Z,50.50
2022-09-07T01:23:26.301Z,50.50
2022-09-07T01:26:16.713Z,50.70
2022-09-07T01:28:47.511Z,50.90
2022-09-07T01:31:26.725Z,50.90
2022-09-07T01:34:00.857Z,51.10
2022-09-07T01:36:37.556Z,51.10
2022-09-07T01:39:16.458Z,51.10
2022-09-07T01:42:01.783Z,51.10
2022-09-07T01:44:38.839Z,51.20
2022-09-07T01:47:12.029Z,51.30
2022-09-07T01:50:00.049Z,51.30
2022-09-07T01:52:42.151Z,51.40
2022-09-07T01:55:22.141Z,51.30
2022-09-07T01:57:55.106Z,51.50
2022-09-07T02:00:26.847Z,51.50
2022-09-07T02:03:17.181Z,51.50
2022-09-07T02:06:04.782Z,51.50
2022-09-07T02:08:38.582Z,51.60
2022-09-07T02:11:12.949Z,51.40
2022-09-07T02:13:42.787Z,51.40
2022-09-07T02:16:16.463Z,51.10
2022-09-07T02:18:55.393Z,50.80
2022-09-07T02:21:33.043Z,50.50
2022-09-07T02:24:12.890Z,50.20
2022-09-07T02:26:42.293Z,50.10
2022-09-07T02:29:10.510Z,50.00
2022-09-07T02:31:40.122Z,50.30
2022-09-07T02:34:06.965Z,50.40
2022-09-07T02:36:39.599Z,50.40
2022-09-07T02:39:16.584Z,50.50
2022-09-07T02:41:45.780Z,50.70
2022-09-07T02:44:36.473Z,50.80
2022-09-07T02:47:06.193Z,50.90
2022-09-07T02:49:47.372Z,51.00
2022-09-07T02:52:17.391Z,51.10
2022-09-07T02:55:08.538Z,51.10
2022-09-07T02:57:54.195Z,51.10
2022-09-07T03:00:26.190Z,51.10
2022-09-07T03:03:05.490Z,51.20
2022-09-07T03:05:34.420Z,51.20
2022-09-07T03:08:04.589Z,51.20
2022-09-07T03:10:37.522Z,51.30
2022-09-07T03:13:07.237Z,51.30
2022-09-07T03:15:34.301Z,51.40
2022-09-07T03:18:07.155Z,51.30
2022-09-07T03:20:39.956Z,52.00
2022-09-07T03:23:09.542Z,51.40
2022-09-07T03:25:36.501Z,51.30
2022-09-07T03:28:08.669Z,51.20
2022-09-07T03:30:40.269Z,51.20
2022-09-07T03:33:15.246Z,51.00
2022-09-07T03:36:02.530Z,50.50
2022-09-07T03:38:34.393Z,48.30
2022-09-07T03:41:03.818Z,48.30
2022-09-07T03:43:31.179Z,49.10
2022-09-07T03:45:58.772Z,49.60
2022-09-07T03:48:32.423Z,50.10
2022-09-07T03:51:07.627Z,50.80
2022-09-07T03:53:35.318Z,52.00
2022-09-07T03:56:06.213Z,51.90
2022-09-07T03:58:39.000Z,52.30
2022-09-07T04:01:09.899Z,52.70
2022-09-07T04:03:39.765Z,53.10
2022-09-07T04:06:13.010Z,53.20
2022-09-07T04:08:44.180Z,53.40
2022-09-07T04:11:16.197Z,53.40
2022-09-07T04:13:45.521Z,53.40
2022-09-07T04:16:29.706Z,53.20
2022-09-07T04:18:59.458Z,53.20
2022-09-07T04:21:33.937Z,53.20
2022-09-07T04:24:03.720Z,53.10
2022-09-07T04:26:33.462Z,53.10
2022-09-07T04:29:04.055Z,53.20
2022-09-07T04:31:36.411Z,53.40
2022-09-07T04:34:11.701Z,53.50
2022-09-07T04:36:42.749Z,53.60
2022-09-07T04:39:10.001Z,53.60
2022-09-07T04:41:39.294Z,53.70
2022-09-07T04:44:07.620Z,53.90
2022-09-07T04:46:37.590Z,54.10
2022-09-07T04:49:11.647Z,54.40
2022-09-07T04:51:44.900Z,54.40
2022-09-07T04:54:17.061Z,54.90
2022-09-07T04:56:46.465Z,55.00
2022-09-07T04:59:13.513Z,55.30
2022-09-07T05:01:45.967Z,55.40
2022-09-07T05:04:15.597Z,55.50
2022-09-07T05:06:53.027Z,56.00
2022-09-07T05:09:27.341Z,55.70
2022-09-07T05:11:56.504Z,56.10
2022-09-07T05:14:28.761Z,55.70
2022-09-07T05:17:08.829Z,55.20
2022-09-07T05:19:35.774Z,55.10
2022-09-07T05:22:04.550Z,54.20
2022-09-07T05:24:36.937Z,53.90
2022-09-07T05:27:05.241Z,53.50
2022-09-07T05:32:19.174Z,53.10
2022-09-07T05:34:50.888Z,53.00
2022-09-07T05:37:25.279Z,52.80
2022-09-07T05:39:57.422Z,52.60
2022-09-07T05:42:26.311Z,53.00
2022-09-07T05:44:59.505Z,52.20
2022-09-07T05:47:29.409Z,52.30
2022-09-07T05:49:58.811Z,52.30
2022-09-07T05:52:25.678Z,52.30
2022-09-07T05:55:19.256Z,52.40
2022-09-07T05:57:50.186Z,52.40
2022-09-07T06:00:22.664Z,52.20
2022-09-07T06:03:02.770Z,52.30
2022-09-07T06:05:41.223Z,52.10
2022-09-07T06:08:13.450Z,52.00
2022-09-07T06:10:48.697Z,51.70
2022-09-07T06:13:30.227Z,51.40
2022-09-07T06:16:11.566Z,51.10
2022-09-07T06:18:44.493Z,50.70
2022-09-07T06:21:18.454Z,50.60
2022-09-07T06:23:48.669Z,50.40
2022-09-07T06:26:18.436Z,50.50
2022-09-07T06:28:55.895Z,50.60
2022-09-07T06:31:27.382Z,50.80
2022-09-07T06:33:54.577Z,50.70
2022-09-07T06:36:31.351Z,50.80
2022-09-07T06:39:10.331Z,51.00
2022-09-07T06:42:00.784Z,51.10
2022-09-07T06:44:32.332Z,51.10
2022-09-07T06:49:30.167Z,51.20
2022-09-07T06:52:02.282Z,51.40
2022-09-07T06:57:19.470Z,51.40
2022-09-07T06:59:51.278Z,51.40
2022-09-07T07:02:20.581Z,51.50
2022-09-07T07:04:53.261Z,51.50
2022-09-07T07:07:22.715Z,51.50
2022-09-07T07:09:50.053Z,51.70
2022-09-07T07:14:53.536Z,51.60
2022-09-07T07:17:20.380Z,51.70
2022-09-07T07:19:51.168Z,51.50
2022-09-07T07:22:42.955Z,51.70
2022-09-07T07:25:08.253Z,51.70
2022-09-07T07:27:38.601Z,51.60
2022-09-07T07:30:08.470Z,51.60
2022-09-07T07:32:43.140Z,51.30
2022-09-07T07:35:14.591Z,51.00
2022-09-07T07:37:46.858Z,50.90
2022-09-07T07:40:30.339Z,50.50
2022-09-07T07:43:08.484Z,51.00
2022-09-07T07:46:00.084Z,50.60
2022-09-07T07:48:38.484Z,50.60
2022-09-07T07:51:12.129Z,50.80
2022-09-07T07:53:45.584Z,50.90
2022-09-07T07:56:17.186Z,50.80
2022-09-07T07:58:55.139Z,50.90
2022-09-07T08:01:28.956Z,51.00
2022-09-07T08:03:59.831Z,51.10
2022-09-07T08:06:29.592Z,51.10
2022-09-07T08:09:00.018Z,51.10
2022-09-07T08:11:35.771Z,51.20
2022-09-07T08:14:13.418Z,51.20
2022-09-07T08:16:45.703Z,51.20
2022-09-07T08:19:12.635Z,51.20
2022-09-07T08:24:35.956Z,51.30
2022-09-07T08:27:10.236Z,51.30
2022-09-07T08:29:38.622Z,51.10
2022-09-07T08:32:14.315Z,50.90
2022-09-07T08:34:47.820Z,50.70
2022-09-07T08:37:15.324Z,50.40
2022-09-07T08:39:52.184Z,50.80
2022-09-07T08:42:42.660Z,49.90
2022-09-07T08:45:12.822Z,50.00
2022-09-07T08:48:05.063Z,50.10
2022-09-07T08:50:44.144Z,50.30
2022-09-07T08:53:20.715Z,50.20
2022-09-07T08:55:53.824Z,50.30
2022-09-07T08:58:48.337Z,50.60
2022-09-07T09:01:31.433Z,50.50
2022-09-07T09:04:18.818Z,50.70
2022-09-07T09:07:10.084Z,50.80
2022-09-07T09:09:46.319Z,50.90
2022-09-07T09:12:44.651Z,50.80
2022-09-07T09:15:36.205Z,51.00
2022-09-07T09:18:26.589Z,51.00
2022-09-07T09:20:59.049Z,51.10
2022-09-07T09:23:30.867Z,51.10
2022-09-07T09:26:04.979Z,51.10
2022-09-07T09:28:40.497Z,51.10
2022-09-07T09:31:20.086Z,51.10
2022-09-07T09:34:29.414Z,51.30
2022-09-07T09:37:22.448Z,51.40
2022-09-07T09:40:23.540Z,51.20
2022-09-07T09:43:08.579Z,51.40
2022-09-07T09:48:52.879Z,51.00
2022-09-07T09:54:32.301Z,50.20
2022-09-07T09:57:38.108Z,50.10
2022-09-07T10:00:08.419Z,49.90
2022-09-07T10:05:27.953Z,49.90
2022-09-07T10:07:54.781Z,50.40
2022-09-07T10:10:21.658Z,50.20
2022-09-07T10:12:48.307Z,50.40
2022-09-07T10:15:29.204Z,50.60
2022-09-07T10:17:55.829Z,51.00
2022-09-07T10:20:30.029Z,50.90
2022-09-07T10:22:59.746Z,51.00
2022-09-07T10:25:44.240Z,51.00
2022-09-07T10:28:14.178Z,51.10
2022-09-07T10:30:59.804Z,51.20
2022-09-07T10:33:41.643Z,51.40
2022-09-07T10:36:11.537Z,51.40
2022-09-07T10:38:40.315Z,51.50
2022-09-07T10:41:10.001Z,51.40
2022-09-07T10:43:47.367Z,51.10
2022-09-07T10:49:18.413Z,50.70
2022-09-07T10:52:01.583Z,50.50
2022-09-07T10:54:47.039Z,50.20
2022-09-07T10:57:29.478Z,50.20
2022-09-07T11:00:11.531Z,50.30
2022-09-07T11:05:59.259Z,50.40
2022-09-07T11:14:26.498Z,50.80
2022-09-07T11:16:58.334Z,50.80
2022-09-07T11:19:37.638Z,50.90
2022-09-07T11:22:22.849Z,51.10
2022-09-07T11:27:39.927Z,51.10
2022-09-07T11:30:13.845Z,51.00
2022-09-07T11:32:42.404Z,51.10
2022-09-07T11:35:12.200Z,51.00
2022-09-07T11:37:40.251Z,51.00
2022-09-07T11:40:12.288Z,50.50
2022-09-07T11:42:46.524Z,50.40
2022-09-07T11:45:17.362Z,50.10
2022-09-07T11:47:53.583Z,49.90
2022-09-07T11:50:23.567Z,49.80
2022-09-07T11:52:53.501Z,49.90
2022-09-07T11:55:22.459Z,50.10
2022-09-07T11:58:05.336Z,50.20
2022-09-07T12:00:55.588Z,50.20
2022-09-07T12:03:41.018Z,50.40
2022-09-07T12:06:34.260Z,50.30
2022-09-07T12:09:07.299Z,50.60
2022-09-07T12:11:33.930Z,50.70
2022-09-07T12:14:12.741Z,50.80
2022-09-07T12:16:45.497Z,50.80
2022-09-07T12:19:15.097Z,50.90
2022-09-07T12:21:50.932Z,51.00
2022-09-07T12:24:36.353Z,51.00
2022-09-07T12:27:03.845Z,51.00
2022-09-07T12:29:30.568Z,50.90
2022-09-07T12:31:59.740Z,50.60
2022-09-07T12:34:29.622Z,50.40
2022-09-07T12:36:56.315Z,50.20
2022-09-07T12:39:25.156Z,49.70
2022-09-07T12:42:31.790Z,49.60
2022-09-07T12:44:39.500Z,49.70
2022-09-07T12:47:09.411Z,49.50
2022-09-07T12:49:36.066Z,50.00
2022-09-07T12:52:39.612Z,50.00
2022-09-07T12:55:27.089Z,50.10
2022-09-07T12:57:54.961Z,50.40
2022-09-07T13:00:25.738Z,50.30
2022-09-07T13:02:55.988Z,50.40
2022-09-07T13:05:44.115Z,50.50
2022-09-07T13:08:13.949Z,50.60
2022-09-07T13:10:43.742Z,50.70
2022-09-07T13:13:19.053Z,50.80
2022-09-07T13:15:47.072Z,50.90
2022-09-07T13:18:27.734Z,50.80
2022-09-07T13:21:06.636Z,51.00
2022-09-07T13:23:43.229Z,51.00
2022-09-07T13:26:10.841Z,50.80
2022-09-07T13:28:40.167Z,50.40
2022-09-07T13:31:13.179Z,50.20
2022-09-07T13:33:42.203Z,49.90
2022-09-07T13:36:29.138Z,49.70
2022-09-07T13:38:56.909Z,49.60
2022-09-07T13:41:26.258Z,49.60
2022-09-07T13:43:55.815Z,49.80
2022-09-07T13:46:31.167Z,49.80
2022-09-07T13:49:00.786Z,49.90
2022-09-07T13:51:32.230Z,50.20
2022-09-07T13:54:01.461Z,50.20
2022-09-07T13:56:47.013Z,50.90
2022-09-07T13:59:26.738Z,50.40
2022-09-07T14:01:53.515Z,50.40
2022-09-07T14:04:21.802Z,50.40
2022-09-07T14:06:48.510Z,50.60
2022-09-07T14:09:18.163Z,51.20
2022-09-07T14:11:46.425Z,50.80
2022-09-07T14:14:17.102Z,50.90
2022-09-07T14:16:45.027Z,51.00
2022-09-07T14:19:12.493Z,50.80
2022-09-07T14:21:39.227Z,50.50
2022-09-07T14:24:14.478Z,50.40
2022-09-07T14:26:45.272Z,50.30
2022-09-07T14:29:19.565Z,50.60
2022-09-07T14:31:46.185Z,49.70
2022-09-07T14:34:12.847Z,49.70
2022-09-07T14:36:45.663Z,49.70
2022-09-07T14:39:13.563Z,49.90
2022-09-07T14:41:41.888Z,50.00
2022-09-07T14:44:26.394Z,50.20
2022-09-07T14:46:56.520Z,50.30
2022-09-07T14:49:23.747Z,50.50
2022-09-07T14:51:50.840Z,50.40
2022-09-07T14:54:21.193Z,50.50
2022-09-07T14:57:03.608Z,51.50
2022-09-07T14:59:43.363Z,50.80
2022-09-07T15:02:19.516Z,50.90
2022-09-07T15:04:46.693Z,51.00
2022-09-07T15:07:28.828Z,51.00
2022-09-07T15:09:55.436Z,51.10
2022-09-07T15:12:36.477Z,51.10
2022-09-07T15:15:26.243Z,50.80
2022-09-07T15:18:01.826Z,50.50
2022-09-07T15:20:36.529Z,50.50
2022-09-07T15:23:13.066Z,50.20
2022-09-07T15:25:40.640Z,49.90
2022-09-07T15:28:14.511Z,50.00
2022-09-07T15:30:41.951Z,50.00
2022-09-07T15:33:08.986Z,50.70
2022-09-07T15:35:35.575Z,50.10
2022-09-07T15:38:04.725Z,50.30
2022-09-07T15:40:36.383Z,50.40
2022-09-07T15:43:13.662Z,50.60
2022-09-07T15:45:43.354Z,50.80
2022-09-07T15:48:16.765Z,50.90
2022-09-07T15:50:43.661Z,51.00
2022-09-07T15:54:07.537Z,51.50
2022-09-07T15:55:56.949Z,51.20
2022-09-07T15:58:24.578Z,51.20
2022-09-07T16:01:51.473Z,51.20
2022-09-07T16:03:38.001Z,51.10
2022-09-07T16:06:09.662Z,51.70
2022-09-07T16:08:36.553Z,51.20
2022-09-07T16:11:18.440Z,50.80
2022-09-07T16:13:46.977Z,50.60
2022-09-07T16:16:15.619Z,50.40
2022-09-07T16:18:46.623Z,50.30
2022-09-07T16:21:13.800Z,50.10
2022-09-07T16:23:41.159Z,50.10
2022-09-07T16:26:07.875Z,50.30
2022-09-07T16:28:35.147Z,50.30
2022-09-07T16:31:06.807Z,50.60
2022-09-07T16:33:37.036Z,50.60
2022-09-07T16:36:05.033Z,50.60
2022-09-07T16:38:49.847Z,50.90
2022-09-07T16:41:17.611Z,50.90
2022-09-07T16:43:44.313Z,51.10
2022-09-07T16:46:14.883Z,51.20
2022-09-07T16:48:41.513Z,51.30
2022-09-07T16:51:09.573Z,51.20
2022-09-07T16:53:36.392Z,51.20
2022-09-07T16:56:08.012Z,51.30
2022-09-07T16:58:36.442Z,51.40
2022-09-07T17:01:04.505Z,51.30
2022-09-07T17:03:31.433Z,51.10
2022-09-07T17:06:01.140Z,50.80
2022-09-07T17:08:27.782Z,50.70
2022-09-07T17:11:00.950Z,50.40
2022-09-07T17:13:27.591Z,50.30
2022-09-07T17:15:54.426Z,50.30
2022-09-07T17:19:28.988Z,50.20
2022-09-07T17:21:07.783Z,50.40
2022-09-07T17:23:41.929Z,50.60
2022-09-07T17:26:16.860Z,50.60
2022-09-07T17:28:44.160Z,51.10
2022-09-07T17:32:21.952Z,51.30
2022-09-07T17:33:58.751Z,51.40
2022-09-07T17:36:25.772Z,51.70
2022-09-07T17:41:39.002Z,52.10
2022-09-07T17:44:06.596Z,52.20
2022-09-07T17:46:34.067Z,52.10
2022-09-07T17:49:01.061Z,52.70
2022-09-07T17:51:28.533Z,52.20
2022-09-07T17:53:59.046Z,52.10
2022-09-07T17:56:25.877Z,51.70
2022-09-07T17:58:53.750Z,51.50
2022-09-07T18:01:24.735Z,51.20
2022-09-07T18:03:53.276Z,50.90
2022-09-07T18:06:21.291Z,50.90
2022-09-07T18:08:48.022Z,51.00
2022-09-07T18:14:02.548Z,51.10
2022-09-07T18:16:29.899Z,51.30
2022-09-07T18:18:57.885Z,51.50
2022-09-07T18:21:27.473Z,51.50
2022-09-07T18:23:55.463Z,51.70
2022-09-07T18:26:22.330Z,51.90
2022-09-07T18:29:10.437Z,51.90
2022-09-07T18:31:36.849Z,52.10
2022-09-07T18:34:03.542Z,52.20
2022-09-07T18:36:30.224Z,52.20
2022-09-07T18:39:00.224Z,52.20
2022-09-07T18:41:26.893Z,52.30
2022-09-07T18:43:53.505Z,52.30
2022-09-07T18:46:21.045Z,52.30
2022-09-07T18:48:47.720Z,52.40
2022-09-07T18:51:14.527Z,52.20
2022-09-07T18:53:41.347Z,51.90
2022-09-07T18:56:08.726Z,51.70
2022-09-07T18:58:35.444Z,51.50
2022-09-07T19:01:05.672Z,51.30
2022-09-07T19:03:32.693Z,50.90
2022-09-07T19:05:59.910Z,50.80
2022-09-07T19:08:29.548Z,51.00
2022-09-07T19:10:56.212Z,51.10
2022-09-07T19:13:22.859Z,51.10
2022-09-07T19:15:49.801Z,51.90
2022-09-07T19:18:16.394Z,51.40
2022-09-07T19:20:43.260Z,52.10
2022-09-07T19:23:10.026Z,51.60
2022-09-07T19:25:39.387Z,51.70
2022-09-07T19:28:06.024Z,51.80
2022-09-07T19:30:34.058Z,51.80
2022-09-07T19:33:04.142Z,52.00
2022-09-07T19:35:34.107Z,51.80
2022-09-07T19:38:00.754Z,52.00
2022-09-07T19:40:27.539Z,51.90
2022-09-07T19:42:54.173Z,52.60
2022-09-07T19:45:20.832Z,52.10
2022-09-07T19:47:50.542Z,52.00
2022-09-07T19:50:19.458Z,52.10
2022-09-07T19:52:46.592Z,52.20
2022-09-07T19:55:13.245Z,52.10
2022-09-07T19:57:40.055Z,52.00
2022-09-07T20:00:07.162Z,51.80
2022-09-07T20:02:33.900Z,51.40
2022-09-07T20:05:00.840Z,51.30
2022-09-07T20:07:27.628Z,51.10
2022-09-07T20:09:54.274Z,50.80
2022-09-07T20:12:20.868Z,50.80
2022-09-07T20:14:47.627Z,50.80
2022-09-07T20:17:14.460Z,50.90
2022-09-07T20:19:41.093Z,51.10
2022-09-07T20:22:07.700Z,51.10
2022-09-07T20:24:35.155Z,51.40
2022-09-07T20:27:02.907Z,51.40
2022-09-07T20:29:30.118Z,51.40
2022-09-07T20:31:57.581Z,51.70
2022-09-07T20:34:24.494Z,51.70
2022-09-07T20:36:51.294Z,51.80
2022-09-07T20:39:19.299Z,51.80
2022-09-07T20:41:45.976Z,51.80
2022-09-07T20:44:12.757Z,51.90
2022-09-07T20:46:39.469Z,51.80
2022-09-07T20:49:06.161Z,51.90
2022-09-07T20:51:33.165Z,51.90
2022-09-07T20:53:59.803Z,51.90
2022-09-07T20:56:27.350Z,52.00
2022-09-07T20:58:55.011Z,52.00
2022-09-07T21:01:21.999Z,51.70
2022-09-07T21:03:49.610Z,51.40
2022-09-07T21:06:16.541Z,51.30
2022-09-07T21:08:43.546Z,50.90
2022-09-07T21:11:10.979Z,50.80
2022-09-07T21:13:37.561Z,50.70
2022-09-07T21:16:05.578Z,50.60
2022-09-07T21:18:33.571Z,50.80
2022-09-07T21:21:19.293Z,50.90
2022-09-07T21:23:46.835Z,50.80
2022-09-07T21:26:13.486Z,51.10
2022-09-07T21:28:40.083Z,51.10
2022-09-07T21:31:06.982Z,51.20
2022-09-07T21:33:34.114Z,51.40
2022-09-07T21:36:07.865Z,51.40
2022-09-07T21:38:34.892Z,51.50
2022-09-07T21:41:11.394Z,51.60
2022-09-07T21:43:38.078Z,51.70
2022-09-07T21:46:08.004Z,51.70
2022-09-07T21:48:34.992Z,51.80
2022-09-07T21:51:01.659Z,51.80
2022-09-07T21:53:28.246Z,51.80
2022-09-07T21:55:58.495Z,51.90
2022-09-07T21:58:25.465Z,51.90
2022-09-07T22:00:53.849Z,52.00
2022-09-07T22:03:21.106Z,52.00
2022-09-07T22:05:47.763Z,52.00
2022-09-07T22:08:14.466Z,52.00
2022-09-07T22:10:41.405Z,51.70
2022-09-07T22:13:08.001Z,51.50
2022-09-07T22:15:37.554Z,51.10
2022-09-07T22:18:04.756Z,51.10
2022-09-07T22:20:31.727Z,50.90
2022-09-07T22:22:58.413Z,50.70
2022-09-07T22:25:25.017Z,50.80
2022-09-07T22:27:51.625Z,50.70
2022-09-07T22:30:18.582Z,50.80
2022-09-07T22:32:50.286Z,51.00
2022-09-07T22:35:17.353Z,51.10
2022-09-07T22:37:43.950Z,51.40
2022-09-07T22:40:12.338Z,51.40
2022-09-07T22:42:38.964Z,51.40
2022-09-07T22:45:06.093Z,51.40
2022-09-07T22:47:32.730Z,51.60
2022-09-07T22:49:59.864Z,51.70
2022-09-07T22:52:26.442Z,51.70
2022-09-07T22:54:53.024Z,51.70
2022-09-07T22:57:19.606Z,51.80
2022-09-07T22:59:46.487Z,51.70
2022-09-07T23:02:13.123Z,51.90
2022-09-07T23:04:39.891Z,51.80
2022-09-07T23:07:07.692Z,51.90
2022-09-07T23:09:34.370Z,52.00
2022-09-07T23:12:00.957Z,51.90
2022-09-07T23:14:27.609Z,52.00
2022-09-07T23:16:54.215Z,51.90
2022-09-07T23:19:20.874Z,51.70
2022-09-07T23:21:47.484Z,51.50
2022-09-07T23:24:14.685Z,51.40
2022-09-07T23:26:41.346Z,51.20
2022-09-07T23:29:08.110Z,50.80
2022-09-07T23:31:34.912Z,50.80
2022-09-07T23:34:01.776Z,50.70
2022-09-07T23:36:28.414Z,50.80
2022-09-07T23:38:56.111Z,50.80
2022-09-07T23:41:22.979Z,50.80
2022-09-07T23:43:49.569Z,51.10
2022-09-07T23:46:16.388Z,51.10
2022-09-07T23:48:43.846Z,51.20
2022-09-07T23:51:10.514Z,51.40
2022-09-07T23:53:37.140Z,51.40
2022-09-07T23:56:03.911Z,51.40
2022-09-07T23:58:30.480Z,51.50
